Time;durP1;ratioP1;P1;durP2;ratioP2;P2;SDS_P1;SDS_P2;PMS_P1;PMS_P2;Temp;Humidity;BMP_temperature;BMP_pressure;BME280_temperature;BME280_humidity;BME280_pressure;Samples;Min_cycle;Max_cycle;Signal;HPM_P1;HPM_P2
2022/10/12 00:01:22;;;;;;;9.98;4.30;;;;;;;14.08;64.51;93317.00;2051192;70;20154;-76
2022/10/12 00:03:48;;;;;;;11.23;4.22;;;;;;;14.10;64.10;93315.00;2050674;70;20586;-78
2022/10/12 00:06:17;;;;;;;10.70;4.03;;;;;;;14.08;64.21;93314.16;2051337;70;20237;-78
2022/10/12 00:08:44;;;;;;;12.10;4.47;;;;;;;14.01;64.38;93315.16;2051544;70;20154;-78
2022/10/12 00:11:16;;;;;;;9.73;4.28;;;;;;;14.03;65.01;93310.38;2051412;70;20153;-78
2022/10/12 00:13:42;;;;;;;14.10;4.63;;;;;;;13.98;65.81;93303.72;2050684;70;20154;-77
2022/10/12 00:16:10;;;;;;;13.80;5.00;;;;;;;13.91;66.51;93292.66;2050987;70;20225;-75
2022/10/12 00:18:36;;;;;;;13.80;4.20;;;;;;;13.98;65.98;93292.41;2050900;70;20253;-79
2022/10/12 00:21:08;;;;;;;13.45;4.90;;;;;;;13.77;67.21;93303.16;2050758;70;20134;-76
2022/10/12 00:23:36;;;;;;;16.08;4.65;;;;;;;13.91;67.24;93301.91;2051225;70;20459;-76
2022/10/12 00:26:04;;;;;;;9.98;4.15;;;;;;;13.87;68.60;93310.16;2051433;70;20499;-78
2022/10/12 00:28:30;;;;;;;9.60;4.03;;;;;;;13.95;68.06;93307.78;2051275;70;20229;-78
2022/10/12 00:30:55;;;;;;;9.48;4.03;;;;;;;13.96;67.80;93308.53;2051162;70;20170;-77
2022/10/12 00:33:21;;;;;;;11.70;4.25;;;;;;;13.94;68.14;93303.50;2051120;70;20142;-77
2022/10/12 00:35:47;;;;;;;12.88;4.28;;;;;;;13.78;70.02;93302.53;2050860;70;20708;-77
2022/10/12 00:38:12;;;;;;;13.55;4.68;;;;;;;13.66;71.31;93301.84;2051119;70;20157;-77
2022/10/12 00:40:38;;;;;;;15.80;5.22;;;;;;;13.77;68.93;93301.06;2051107;70;20283;-77
2022/10/12 00:43:03;;;;;;;12.20;4.78;;;;;;;13.79;67.57;93301.22;2051049;70;20224;-76
2022/10/12 00:45:31;;;;;;;12.88;4.78;;;;;;;13.47;71.40;93297.19;2050835;70;20154;-77
2022/10/12 00:47:58;;;;;;;10.40;4.55;;;;;;;13.63;70.39;93297.41;2051001;70;20138;-77
2022/10/12 00:50:32;;;;;;;15.25;4.75;;;;;;;13.69;70.75;93295.66;2050915;70;20230;-78
2022/10/12 00:53:21;;;;;;;11.15;4.05;;;;;;;13.81;68.71;93294.91;2051197;70;20198;-77
2022/10/12 00:55:51;;;;;;;13.02;4.03;;;;;;;13.83;69.22;93304.25;2050641;70;20146;-77
2022/10/12 00:58:17;;;;;;;13.77;4.95;;;;;;;13.79;70.50;93301.22;2050684;70;20146;-76
2022/10/12 01:00:43;;;;;;;12.15;4.28;;;;;;;13.78;69.29;93302.53;2050565;70;20165;-78
2022/10/12 01:03:11;;;;;;;15.30;4.20;;;;;;;13.78;70.95;93294.06;2050448;70;20219;-78
2022/10/12 01:05:39;;;;;;;13.55;5.15;;;;;;;13.60;72.24;93296.53;2050647;70;20142;-78
2022/10/12 01:08:05;;;;;;;10.30;4.32;;;;;;;13.70;69.95;93294.34;2050751;70;20254;-77
2022/10/12 01:10:31;;;;;;;12.35;4.18;;;;;;;13.57;70.75;93288.56;2050575;70;20154;-75
2022/10/12 01:12:57;;;;;;;14.50;4.40;;;;;;;13.67;69.67;93287.06;2051216;70;20242;-78
2022/10/12 01:15:30;;;;;;;8.77;4.47;;;;;;;13.44;72.92;93287.09;2051031;70;20315;-76
2022/10/12 01:18:15;;;;;;;9.48;4.43;;;;;;;13.54;70.47;93289.81;2050979;70;20162;-77
2022/10/12 01:20:44;;;;;;;13.63;4.78;;;;;;;13.54;70.78;93290.53;2050830;70;20240;-76
2022/10/12 01:23:16;;;;;;;10.57;4.60;;;;;;;13.61;69.95;93283.16;2050910;70;20134;-78
2022/10/12 01:26:00;;;;;;;11.23;3.97;;;;;;;13.65;69.58;93286.19;2051039;70;20233;-78
2022/10/12 01:29:04;;;;;;;8.65;4.40;;;;;;;13.63;70.62;93284.00;2050868;70;20625;-78
2022/10/12 01:31:42;;;;;;;13.13;3.80;;;;;;;13.60;69.70;93279.56;2050240;70;20172;-78
2022/10/12 01:34:38;;;;;;;9.00;4.55;;;;;;;13.58;70.47;93278.72;2050691;70;20143;-77
2022/10/12 01:37:14;;;;;;;6.80;3.83;;;;;;;13.55;69.92;93285.63;2050873;70;20225;-79
2022/10/12 01:39:49;;;;;;;12.02;4.45;;;;;;;13.48;70.74;93295.84;2051041;70;20157;-78
2022/10/12 01:42:30;;;;;;;9.75;4.55;;;;;;;13.35;71.92;93285.16;2051628;70;20142;-78
2022/10/12 01:45:16;;;;;;;7.20;4.07;;;;;;;13.44;70.80;93287.84;2051262;70;20202;-78
2022/10/12 01:47:47;;;;;;;11.07;4.63;;;;;;;13.50;69.83;93289.56;2053591;70;20153;-79
2022/10/12 01:50:15;;;;;;;10.77;4.50;;;;;;;13.44;70.13;93287.84;2051155;70;20201;-79
2022/10/12 01:53:02;;;;;;;10.60;4.25;;;;;;;13.43;70.73;93285.66;2051024;70;20142;-79
2022/10/12 01:55:35;;;;;;;8.77;4.25;;;;;;;13.43;71.25;93291.31;2051320;70;20151;-81
2022/10/12 01:58:28;;;;;;;12.88;4.18;;;;;;;13.35;70.21;93288.72;2051345;70;20177;-81
2022/10/12 02:01:23;;;;;;;8.32;4.13;;;;;;;13.39;70.79;93288.97;2053141;70;20165;-79
2022/10/12 02:04:17;;;;;;;9.93;4.60;;;;;;;13.37;71.06;93288.09;2050808;70;20573;-79
2022/10/12 02:06:50;;;;;;;11.32;4.03;;;;;;;13.34;70.26;93286.50;2051012;70;20148;-80
2022/10/12 02:09:26;;;;;;;11.07;4.37;;;;;;;13.34;70.70;93280.84;2050652;70;20162;-77
2022/10/12 02:11:56;;;;;;;10.00;4.53;;;;;;;13.36;69.78;93278.88;2048074;70;20153;-78
2022/10/12 02:14:37;;;;;;;10.43;5.00;;;;;;;13.32;72.05;93286.38;2051013;70;20543;-77
2022/10/12 02:17:06;;;;;;;13.00;4.60;;;;;;;13.32;70.75;93275.06;2050528;70;20190;-75
2022/10/12 02:19:38;;;;;;;14.35;4.78;;;;;;;13.30;70.77;93284.16;2050722;70;20155;-76
2022/10/12 02:22:06;;;;;;;9.90;4.53;;;;;;;13.22;71.84;93283.69;2050727;70;20563;-75
2022/10/12 02:24:35;;;;;;;12.43;4.20;;;;;;;13.24;70.95;93281.00;2050699;70;20602;-75
2022/10/12 02:27:02;;;;;;;9.05;4.40;;;;;;;13.28;70.68;93277.66;2050875;69;20135;-76
2022/10/12 02:29:33;;;;;;;9.27;4.35;;;;;;;13.33;70.64;93279.38;2050803;70;20186;-78
2022/10/12 02:32:10;;;;;;;13.43;4.55;;;;;;;13.29;70.47;93268.56;2051157;70;20153;-79
2022/10/12 02:34:52;;;;;;;8.93;4.22;;;;;;;13.34;70.45;93269.53;2051158;70;20236;-78
2022/10/12 02:37:42;;;;;;;12.15;3.95;;;;;;;13.32;71.18;93266.59;2051163;70;20139;-79
2022/10/12 02:40:25;;;;;;;8.52;3.80;;;;;;;13.29;71.09;93265.75;2051366;70;20577;-78
2022/10/12 02:43:16;;;;;;;8.93;4.30;;;;;;;13.30;70.33;93269.31;2051235;70;20150;-80
2022/10/12 02:45:45;;;;;;;11.48;4.55;;;;;;;13.27;70.72;93262.03;2051183;70;20518;-78
2022/10/12 02:48:15;;;;;;;7.18;4.07;;;;;;;13.28;69.94;93255.75;2048033;70;20296;-78
2022/10/12 02:50:45;;;;;;;12.18;4.50;;;;;;;13.28;70.10;93260.69;2050675;70;20149;-78
2022/10/12 02:53:12;;;;;;;8.05;4.03;;;;;;;13.22;70.72;93258.22;2051222;70;20146;-78
2022/10/12 02:55:47;;;;;;;9.38;3.92;;;;;;;13.27;69.93;93259.94;2051554;70;20149;-77
2022/10/12 02:58:13;;;;;;;11.65;4.10;;;;;;;13.24;70.11;93261.19;2051266;70;20161;-78
2022/10/12 03:00:38;;;;;;;10.30;4.18;;;;;;;13.26;69.22;93264.13;2048002;70;20154;-77
2022/10/12 03:03:04;;;;;;;11.23;4.75;;;;;;;13.25;70.24;93256.28;2048029;70;20594;-77
2022/10/12 03:05:29;;;;;;;8.23;3.88;;;;;;;13.31;69.08;93251.72;2051443;70;20508;-76
2022/10/12 03:07:55;;;;;;;15.30;5.30;;;;;;;13.24;71.30;93252.72;2050825;70;20228;-78
2022/10/12 03:10:20;;;;;;;6.85;3.72;;;;;;;13.22;69.74;93253.31;2051480;69;20295;-76
2022/10/12 03:12:46;;;;;;;10.23;4.57;;;;;;;13.21;69.87;93251.09;2051594;70;20183;-78
2022/10/12 03:15:11;;;;;;;8.73;4.30;;;;;;;13.25;69.82;93247.78;2051434;70;20153;-77
2022/10/12 03:17:37;;;;;;;12.18;3.92;;;;;;;13.17;71.06;93251.56;2051518;70;20154;-76
2022/10/12 03:20:03;;;;;;;7.28;3.70;;;;;;;13.21;70.02;93246.16;2051352;70;20199;-77
2022/10/12 03:22:29;;;;;;;10.40;3.90;;;;;;;13.14;70.26;93254.88;2051649;70;20149;-78
2022/10/12 03:24:55;;;;;;;9.63;4.68;;;;;;;12.82;72.84;93256.47;2051450;69;20541;-78
2022/10/12 03:27:21;;;;;;;6.40;3.75;;;;;;;13.09;71.16;93258.81;2048270;70;20523;-77
2022/10/12 03:29:46;;;;;;;9.07;4.10;;;;;;;13.12;70.29;93263.25;2051402;70;20652;-79
2022/10/12 03:32:14;;;;;;;13.80;5.00;;;;;;;12.99;72.49;93258.94;2051431;70;20182;-79
2022/10/12 03:34:41;;;;;;;7.57;3.65;;;;;;;13.11;70.19;93265.34;2051621;70;20152;-76
2022/10/12 03:37:07;;;;;;;8.43;4.07;;;;;;;13.07;70.59;93265.09;2051019;70;20158;-77
2022/10/12 03:39:33;;;;;;;10.18;4.32;;;;;;;13.07;70.85;93264.38;2051532;70;20525;-78
2022/10/12 03:41:58;;;;;;;7.38;4.13;;;;;;;13.10;70.87;93271.59;2051585;70;20245;-79
2022/10/12 03:44:24;;;;;;;9.75;3.75;;;;;;;13.01;70.40;93278.13;2052028;70;20626;-77
2022/10/12 03:46:51;;;;;;;8.43;4.05;;;;;;;13.05;70.48;93273.44;2051579;70;20645;-78
2022/10/12 03:49:16;;;;;;;6.60;3.50;;;;;;;13.14;69.02;93275.41;2051668;70;20153;-79
2022/10/12 03:51:42;;;;;;;7.80;4.03;;;;;;;12.94;72.47;93277.00;2051660;70;20154;-78
2022/10/12 03:54:07;;;;;;;13.15;5.28;;;;;;;13.01;71.18;93276.03;2051571;70;20222;-78
2022/10/12 03:56:33;;;;;;;11.77;4.57;;;;;;;13.03;70.14;93278.25;2051677;70;20156;-79
2022/10/12 03:58:59;;;;;;;8.88;4.00;;;;;;;13.00;71.04;93285.13;2050960;70;20181;-79
2022/10/12 04:01:24;;;;;;;10.23;4.22;;;;;;;13.04;70.57;93280.44;2051412;69;20150;-79
2022/10/12 04:03:50;;;;;;;7.30;3.90;;;;;;;12.96;72.37;93277.13;2051652;70;20146;-79
2022/10/12 04:06:16;;;;;;;10.65;4.18;;;;;;;12.94;71.67;93282.66;2051564;70;20208;-78
2022/10/12 04:08:41;;;;;;;10.82;4.50;;;;;;;12.98;71.31;93283.66;2051875;70;20134;-79
2022/10/12 04:11:07;;;;;;;9.20;4.75;;;;;;;12.96;71.43;93274.31;2051671;70;20319;-76
2022/10/12 04:13:33;;;;;;;7.03;4.35;;;;;;;13.01;70.06;93276.03;2051569;70;20169;-77
2022/10/12 04:16:06;;;;;;;13.02;4.88;;;;;;;13.00;70.70;93276.66;2051449;70;20161;-76
2022/10/12 04:18:32;;;;;;;9.05;5.25;;;;;;;12.93;70.85;93279.09;2051634;70;20585;-78
2022/10/12 04:21:01;;;;;;;12.65;5.03;;;;;;;12.96;70.29;93274.31;2051454;70;20233;-79
2022/10/12 04:23:27;;;;;;;7.68;4.68;;;;;;;12.96;70.69;93275.03;2051498;70;20146;-78
2022/10/12 04:25:52;;;;;;;9.65;5.03;;;;;;;12.96;71.04;93268.66;2051702;70;20156;-79
2022/10/12 04:28:18;;;;;;;12.95;5.15;;;;;;;12.94;71.50;93274.19;2051637;70;20151;-79
2022/10/12 04:30:44;;;;;;;12.90;5.28;;;;;;;12.90;71.43;93274.66;2051468;70;20155;-78
2022/10/12 04:33:11;;;;;;;12.73;5.20;;;;;;;12.89;71.47;93275.28;2051512;69;20226;-78
2022/10/12 04:35:36;;;;;;;10.55;4.57;;;;;;;12.91;71.03;93275.41;2051529;70;20170;-78
2022/10/12 04:38:02;;;;;;;10.02;4.55;;;;;;;12.89;71.40;93278.13;2051602;70;20205;-79
2022/10/12 04:40:28;;;;;;;6.20;4.13;;;;;;;12.91;70.55;93278.97;2051490;69;20232;-79
2022/10/12 04:42:54;;;;;;;8.57;4.47;;;;;;;12.83;70.96;93283.38;2051684;70;20251;-78
2022/10/12 04:45:21;;;;;;;13.15;4.95;;;;;;;12.81;71.03;93281.19;2051456;70;20178;-76
2022/10/12 04:47:47;;;;;;;11.85;5.03;;;;;;;12.84;71.55;93290.53;2051564;69;20312;-79
2022/10/12 04:50:12;;;;;;;12.10;4.72;;;;;;;12.90;69.99;93279.59;2051514;70;20201;-78
2022/10/12 04:52:38;;;;;;;22.73;10.98;;;;;;;12.82;71.40;93293.94;2051456;70;20162;-78
2022/10/12 04:55:04;;;;;;;21.70;10.38;;;;;;;12.83;70.72;93292.63;2051473;70;20538;-79
2022/10/12 04:57:30;;;;;;;17.48;8.27;;;;;;;12.79;71.46;93286.72;2050816;70;20195;-79
2022/10/12 04:59:55;;;;;;;15.85;7.43;;;;;;;12.69;71.81;93291.72;2051372;70;20146;-78
2022/10/12 05:02:21;;;;;;;13.57;7.32;;;;;;;12.71;70.87;93295.41;2051297;70;20274;-79
2022/10/12 05:04:47;;;;;;;13.48;6.53;;;;;;;12.70;71.61;93296.03;2051459;70;20555;-77
2022/10/12 05:07:12;;;;;;;11.70;5.88;;;;;;;12.69;71.42;93297.38;2051410;70;20229;-78
2022/10/12 05:09:38;;;;;;;35.80;17.55;;;;;;;12.68;71.30;93293.06;2051368;70;20173;-79
2022/10/12 05:12:04;;;;;;;46.05;24.45;;;;;;;12.59;72.24;93294.66;2053511;70;20150;-79
2022/10/12 05:14:29;;;;;;;34.05;15.98;;;;;;;12.53;72.97;93294.28;2051311;70;20153;-79
2022/10/12 05:16:55;;;;;;;31.45;16.23;;;;;;;12.60;72.29;93290.50;2051175;70;20680;-78
2022/10/12 05:19:21;;;;;;;23.80;11.75;;;;;;;12.63;72.13;93292.06;2051517;70;20153;-78
2022/10/12 05:21:46;;;;;;;16.27;9.95;;;;;;;12.59;71.44;93293.91;2051302;70;20180;-78
2022/10/12 05:24:12;;;;;;;16.27;9.05;;;;;;;12.63;72.09;93291.34;2051299;70;20207;-79
2022/10/12 05:26:38;;;;;;;14.70;6.68;;;;;;;12.62;72.26;93295.53;2051357;70;20245;-79
2022/10/12 05:29:03;;;;;;;13.73;7.55;;;;;;;12.62;71.63;93296.25;2051382;70;20145;-79
2022/10/12 05:31:29;;;;;;;14.73;7.30;;;;;;;12.62;72.14;93295.53;2047983;70;20230;-76
2022/10/12 05:33:54;;;;;;;12.02;7.20;;;;;;;12.65;71.91;93288.66;2051431;70;20193;-78
2022/10/12 05:36:20;;;;;;;20.52;7.70;;;;;;;12.61;71.62;93286.31;2051376;70;20154;-78
2022/10/12 05:38:46;;;;;;;14.02;6.80;;;;;;;12.62;72.13;93298.34;2051348;70;20256;-78
2022/10/12 05:41:11;;;;;;;12.25;5.97;;;;;;;12.64;72.10;93310.50;2051342;70;20150;-79
2022/10/12 05:43:37;;;;;;;13.10;5.90;;;;;;;12.47;73.14;93310.84;2050691;70;20143;-79
2022/10/12 05:46:03;;;;;;;12.93;6.43;;;;;;;12.27;75.04;93315.19;2051067;70;20154;-77
2022/10/12 05:48:29;;;;;;;11.60;6.68;;;;;;;12.47;74.31;93316.50;2051327;70;20248;-79
2022/10/12 05:50:54;;;;;;;16.05;7.53;;;;;;;12.49;73.58;93313.78;2051386;70;20192;-78
2022/10/12 05:53:20;;;;;;;17.20;7.57;;;;;;;12.51;73.96;93315.97;2052066;70;20149;-78
2022/10/12 05:55:57;;;;;;;16.75;7.85;;;;;;;12.54;73.97;93315.50;2051452;70;20166;-79
2022/10/12 05:58:24;;;;;;;12.25;7.25;;;;;;;12.57;72.75;93322.03;2051654;70;20234;-78
2022/10/12 06:00:50;;;;;;;13.85;7.05;;;;;;;12.63;71.90;93323.16;2051228;70;20150;-79
2022/10/12 06:03:15;;;;;;;16.17;7.68;;;;;;;12.58;72.69;93318.59;2051296;70;20237;-78
2022/10/12 06:05:42;;;;;;;23.40;8.38;;;;;;;12.66;71.22;93321.94;2051205;70;20217;-78
2022/10/12 06:08:09;;;;;;;15.98;7.97;;;;;;;12.53;72.38;93322.50;2051197;70;20138;-77
2022/10/12 06:10:43;;;;;;;16.33;7.03;;;;;;;12.64;71.15;93309.75;2051460;70;20183;-79
2022/10/12 06:13:09;;;;;;;16.08;7.15;;;;;;;12.68;71.14;93312.84;2051376;70;20190;-78
2022/10/12 06:15:35;;;;;;;16.52;7.28;;;;;;;12.59;72.82;93310.84;2051204;70;20598;-76
2022/10/12 06:18:01;;;;;;;13.20;7.60;;;;;;;12.56;73.67;93312.81;2051346;70;20139;-75
2022/10/12 06:20:27;;;;;;;13.65;7.40;;;;;;;12.69;71.43;93309.44;2051369;70;20672;-78
2022/10/12 06:22:53;;;;;;;14.25;7.70;;;;;;;12.68;72.87;93307.19;2051307;70;20146;-78
2022/10/12 06:25:18;;;;;;;14.95;7.78;;;;;;;12.62;72.72;93313.19;2051261;70;20157;-77
2022/10/12 06:27:45;;;;;;;16.17;7.72;;;;;;;12.69;70.83;93315.06;2051364;70;20174;-78
2022/10/12 06:30:12;;;;;;;14.70;8.63;;;;;;;12.65;72.89;93316.91;2051606;70;20290;-77
2022/10/12 06:32:37;;;;;;;15.23;8.07;;;;;;;12.70;72.26;93319.38;2051737;70;20672;-77
2022/10/12 06:35:04;;;;;;;16.02;7.95;;;;;;;12.74;72.90;93324.53;2051687;70;20142;-76
2022/10/12 06:37:29;;;;;;;13.25;8.40;;;;;;;12.77;71.70;93326.13;2051749;70;20563;-77
2022/10/12 06:39:56;;;;;;;15.10;9.00;;;;;;;12.82;72.22;93338.41;2051744;70;20161;-75
2022/10/12 06:42:22;;;;;;;14.57;9.00;;;;;;;12.85;72.58;93337.22;2051901;70;20157;-76
2022/10/12 06:44:49;;;;;;;16.92;8.88;;;;;;;12.94;72.18;93333.53;2051666;70;20150;-75
2022/10/12 06:47:14;;;;;;;26.25;12.43;;;;;;;12.82;72.28;93336.34;2051583;70;20139;-77
2022/10/12 06:49:40;;;;;;;22.85;10.63;;;;;;;12.86;72.05;93342.25;2051721;70;20608;-79
2022/10/12 06:52:05;;;;;;;19.60;9.68;;;;;;;12.98;72.21;93337.34;2051713;69;20161;-78
2022/10/12 06:54:31;;;;;;;16.30;8.57;;;;;;;13.03;71.85;93343.25;2051750;70;20570;-77
2022/10/12 06:56:57;;;;;;;18.90;10.38;;;;;;;12.95;71.29;93347.03;2051879;70;20170;-78
2022/10/12 06:59:22;;;;;;;20.05;10.55;;;;;;;13.01;71.64;93357.25;2051669;70;20543;-79
2022/10/12 07:01:48;;;;;;;26.55;10.52;;;;;;;13.12;71.91;93362.94;2051415;70;20154;-78
2022/10/12 07:04:15;;;;;;;17.80;9.05;;;;;;;13.15;72.23;93369.47;2051664;70;20606;-75
2022/10/12 07:06:41;;;;;;;19.92;9.70;;;;;;;13.20;72.01;93371.19;2051621;70;20146;-77
2022/10/12 07:09:07;;;;;;;18.98;9.00;;;;;;;13.18;70.83;93368.22;2051596;70;20151;-77
2022/10/12 07:11:32;;;;;;;16.70;8.40;;;;;;;13.29;72.27;93369.63;2051630;70;20162;-77
2022/10/12 07:13:58;;;;;;;18.77;8.43;;;;;;;13.36;68.67;93360.16;2051407;70;20159;-77
2022/10/12 07:16:24;;;;;;;18.48;9.20;;;;;;;13.11;72.26;93358.63;2051541;70;20143;-74
2022/10/12 07:18:49;;;;;;;18.00;11.32;;;;;;;13.01;74.75;93360.81;2051639;70;20289;-78
2022/10/12 07:21:15;;;;;;;12.68;7.90;;;;;;;12.71;77.39;93363.22;2051736;70;20633;-78
2022/10/12 07:23:42;;;;;;;19.02;8.07;;;;;;;13.24;73.91;93362.97;2051679;70;20582;-77
2022/10/12 07:26:08;;;;;;;15.43;7.88;;;;;;;13.48;72.50;93361.63;2051671;70;20253;-77
2022/10/12 07:28:36;;;;;;;14.32;8.70;;;;;;;13.72;69.59;93355.94;2051579;70;20249;-79
2022/10/12 07:31:04;;;;;;;15.52;9.45;;;;;;;13.83;70.48;93360.84;2051444;70;20481;-78
2022/10/12 07:33:37;;;;;;;16.05;8.13;;;;;;;13.87;69.74;93351.88;2051756;70;20141;-80
2022/10/12 07:36:03;;;;;;;13.52;7.35;;;;;;;13.86;71.73;93356.78;2051602;69;20593;-81
2022/10/12 07:38:29;;;;;;;13.50;7.72;;;;;;;14.05;71.10;93357.88;2051726;70;20154;-81
2022/10/12 07:40:58;;;;;;;14.60;7.80;;;;;;;14.14;66.99;93362.63;2051520;70;20517;-77
2022/10/12 07:43:24;;;;;;;13.25;7.68;;;;;;;13.76;72.58;93369.63;2051680;70;20197;-77
2022/10/12 07:45:49;;;;;;;10.63;6.60;;;;;;;14.11;69.91;93361.03;2051638;70;20162;-77
2022/10/12 07:48:15;;;;;;;13.10;6.57;;;;;;;14.20;68.95;93360.16;2051560;70;20597;-77
2022/10/12 07:50:40;;;;;;;14.93;7.45;;;;;;;14.18;69.63;93368.53;2051673;70;20233;-75
2022/10/12 07:53:06;;;;;;;15.10;6.32;;;;;;;14.20;68.24;93368.66;2051475;70;20161;-77
2022/10/12 07:55:32;;;;;;;12.23;6.53;;;;;;;14.30;68.87;93368.53;2050320;70;20154;-77
2022/10/12 07:58:01;;;;;;;13.65;6.40;;;;;;;14.30;69.99;93374.91;2047816;70;20158;-77
2022/10/12 08:00:28;;;;;;;12.60;6.50;;;;;;;14.39;69.49;93376.13;2047804;70;20557;-78
2022/10/12 08:02:53;;;;;;;12.45;6.20;;;;;;;14.44;66.18;93372.91;2047810;70;20147;-78
2022/10/12 08:05:20;;;;;;;13.70;6.88;;;;;;;14.46;67.71;93373.00;2048030;70;20546;-78
2022/10/12 08:07:51;;;;;;;13.52;6.00;;;;;;;14.61;68.49;93380.25;2044471;70;20154;-78
2022/10/12 08:10:18;;;;;;;12.07;6.07;;;;;;;14.43;71.28;93382.75;2047869;70;20226;-75
2022/10/12 08:12:45;;;;;;;13.48;6.55;;;;;;;14.37;73.91;93376.00;2047864;70;20162;-75
2022/10/12 08:15:11;;;;;;;15.48;7.05;;;;;;;14.45;73.83;93371.53;2047680;70;20167;-76
2022/10/12 08:17:37;;;;;;;13.95;6.38;;;;;;;14.71;71.24;93380.09;2047913;70;20143;-75
2022/10/12 08:20:03;;;;;;;18.67;6.47;;;;;;;14.88;71.51;93376.78;2047745;70;20143;-78
2022/10/12 08:22:29;;;;;;;12.32;6.40;;;;;;;14.95;70.16;93381.44;2047870;70;20167;-77
2022/10/12 08:24:54;;;;;;;13.18;5.90;;;;;;;15.05;68.95;93380.53;2047918;70;20204;-76
2022/10/12 08:27:20;;;;;;;13.75;6.15;;;;;;;15.26;68.13;93371.78;2047742;70;20237;-76
2022/10/12 08:29:46;;;;;;;13.35;5.75;;;;;;;14.68;69.48;93359.41;2047789;70;20165;-77
2022/10/12 08:32:11;;;;;;;17.23;6.55;;;;;;;15.16;67.80;93369.09;2047735;70;20143;-77
2022/10/12 08:34:37;;;;;;;16.98;7.10;;;;;;;15.36;67.13;93365.91;2047822;70;20182;-77
2022/10/12 08:37:03;;;;;;;14.77;6.75;;;;;;;15.37;68.18;93373.78;2047847;70;20157;-75
2022/10/12 08:39:28;;;;;;;18.35;7.28;;;;;;;15.44;67.43;93372.75;2047746;70;20147;-75
2022/10/12 08:42:00;;;;;;;15.65;5.38;;;;;;;15.63;66.14;93363.13;2047740;70;20146;-78
2022/10/12 08:44:54;;;;;;;15.23;5.38;;;;;;;16.02;67.47;93365.84;2047771;70;20340;-77
2022/10/12 08:47:40;;;;;;;14.50;6.15;;;;;;;16.56;66.83;93371.38;2047647;70;20230;-77
2022/10/12 08:50:21;;;;;;;17.20;8.05;;;;;;;16.92;66.39;93364.63;2047787;70;20241;-78
2022/10/12 08:53:02;;;;;;;14.73;6.20;;;;;;;17.29;64.36;93357.81;2047596;70;20249;-76
2022/10/12 08:55:35;;;;;;;15.68;5.82;;;;;;;17.47;63.24;93358.66;2047861;70;20700;-77
2022/10/12 08:58:01;;;;;;;16.55;5.60;;;;;;;17.74;62.35;93362.72;2047721;70;20200;-77
2022/10/12 09:00:30;;;;;;;12.20;5.45;;;;;;;18.08;59.33;93352.09;2047568;70;20237;-77
2022/10/12 09:03:22;;;;;;;16.55;6.00;;;;;;;18.21;59.77;93359.06;2047691;70;20586;-76
2022/10/12 09:05:57;;;;;;;14.73;5.35;;;;;;;17.98;57.98;93352.41;2047651;70;20217;-76
2022/10/12 09:08:49;;;;;;;10.82;4.70;;;;;;;18.42;55.91;93352.88;2047828;70;20147;-76
2022/10/12 09:11:32;;;;;;;10.25;4.47;;;;;;;17.97;57.04;93348.09;2047679;70;20158;-77
2022/10/12 09:14:06;;;;;;;7.53;3.67;;;;;;;18.40;57.07;93343.47;2047534;70;20253;-75
2022/10/12 09:16:38;;;;;;;9.90;3.60;;;;;;;18.53;57.14;93345.47;2047692;70;20150;-77
2022/10/12 09:19:12;;;;;;;12.20;4.80;;;;;;;19.00;55.85;93347.38;2047792;70;20154;-78
2022/10/12 09:21:40;;;;;;;11.40;4.57;;;;;;;19.42;54.11;93344.72;2044334;70;20452;-77
2022/10/12 09:24:14;;;;;;;10.07;3.70;;;;;;;19.43;53.97;93335.50;2047760;70;20408;-78
2022/10/12 09:26:42;;;;;;;9.65;3.83;;;;;;;20.17;51.16;93329.63;2049899;70;20151;-77
2022/10/12 09:29:30;;;;;;;7.75;3.80;;;;;;;20.93;49.57;93327.19;2047722;70;20203;-77
2022/10/12 09:32:21;;;;;;;9.00;3.53;;;;;;;21.02;48.50;93323.91;2047647;70;20154;-77
2022/10/12 09:34:48;;;;;;;9.02;3.75;;;;;;;21.54;47.53;93329.84;2047840;70;20595;-77
2022/10/12 09:37:23;;;;;;;7.13;3.30;;;;;;;21.27;46.50;93325.44;2047694;70;20180;-77
2022/10/12 09:39:50;;;;;;;10.13;3.45;;;;;;;21.82;46.71;93324.22;2047645;70;20147;-77
2022/10/12 09:42:15;;;;;;;13.20;4.00;;;;;;;22.31;46.90;93319.13;2047656;70;20169;-78
2022/10/12 09:44:45;;;;;;;11.90;4.35;;;;;;;22.01;46.92;93319.75;2047744;70;20599;-80
2022/10/12 09:47:22;;;;;;;11.30;3.38;;;;;;;22.46;46.13;93318.13;2046970;70;20147;-77
2022/10/12 09:49:50;;;;;;;8.40;3.55;;;;;;;22.88;46.21;93317.75;2047764;70;20241;-78
2022/10/12 09:52:27;;;;;;;11.30;3.83;;;;;;;22.63;45.48;93315.66;2047662;70;20143;-78
2022/10/12 09:55:14;;;;;;;8.20;4.15;;;;;;;22.19;47.13;93305.22;2047666;70;20182;-76
2022/10/12 09:57:43;;;;;;;10.20;4.15;;;;;;;21.49;46.77;93305.34;2046114;70;20151;-76
2022/10/12 10:00:32;;;;;;;14.60;4.63;;;;;;;21.87;47.16;93304.28;2047519;70;20241;-79
2022/10/12 10:02:59;;;;;;;8.30;4.22;;;;;;;22.63;46.51;93304.19;2047627;70;20159;-76
2022/10/12 10:05:26;;;;;;;8.88;4.55;;;;;;;22.10;47.57;93292.03;2047595;70;20614;-77
2022/10/12 10:07:52;;;;;;;10.68;5.20;;;;;;;22.74;46.15;93285.81;2047548;70;20230;-77
2022/10/12 10:10:23;;;;;;;7.50;3.40;;;;;;;23.04;44.31;93283.69;2047793;70;20250;-76
2022/10/12 10:13:00;;;;;;;9.75;3.83;;;;;;;22.60;44.45;93283.31;2047753;70;20234;-77
2022/10/12 10:15:27;;;;;;;17.95;7.80;;;;;;;22.33;45.19;93282.63;2047446;70;20197;-75
2022/10/12 10:17:58;;;;;;;11.00;4.25;;;;;;;23.65;44.20;93290.13;2047570;70;20151;-75
2022/10/12 10:20:42;;;;;;;13.80;5.72;;;;;;;24.49;42.19;93281.00;2047522;70;20587;-76
2022/10/12 10:23:24;;;;;;;18.20;4.20;;;;;;;25.01;41.28;93288.34;2048695;70;20618;-78
2022/10/12 10:26:02;;;;;;;15.75;4.10;;;;;;;25.94;40.10;93276.78;2051254;70;20242;-76
2022/10/12 10:28:30;;;;;;;12.20;3.63;;;;;;;25.48;38.23;93277.59;2051152;70;20158;-76
2022/10/12 10:31:04;;;;;;;10.38;3.50;;;;;;;25.53;39.22;93276.22;2047780;70;20149;-78
2022/10/12 10:33:33;;;;;;;13.50;3.53;;;;;;;26.11;37.32;93275.50;2051094;70;20261;-77
2022/10/12 10:36:19;;;;;;;13.30;4.45;;;;;;;25.54;38.66;93274.78;2051164;70;20146;-75
2022/10/12 10:39:07;;;;;;;9.55;3.40;;;;;;;26.20;37.40;93267.69;2047809;70;20151;-74
2022/10/12 10:41:38;;;;;;;13.48;3.47;;;;;;;27.45;35.46;93266.69;2050469;70;20593;-76
2022/10/12 10:44:17;;;;;;;14.07;3.38;;;;;;;27.55;35.65;93263.88;2051082;70;20180;-76
2022/10/12 10:46:46;;;;;;;13.82;3.58;;;;;;;27.35;32.70;93265.19;2050480;70;20212;-75
2022/10/12 10:49:27;;;;;;;14.30;3.55;;;;;;;28.49;33.12;93265.03;2051059;70;20143;-77
2022/10/12 10:51:56;;;;;;;9.48;2.92;;;;;;;28.61;34.21;93258.53;2051068;70;20272;-77
2022/10/12 10:54:22;;;;;;;8.27;2.90;;;;;;;30.07;30.97;93259.91;2051028;70;20153;-77
2022/10/12 10:56:51;;;;;;;13.00;2.88;;;;;;;32.11;28.98;93262.06;2050538;70;20162;-77
2022/10/12 10:59:39;;;;;;;11.38;3.20;;;;;;;33.33;27.48;93267.75;2047292;70;20622;-80
2022/10/12 11:02:37;;;;;;;12.52;2.95;;;;;;;33.10;27.73;93262.25;2050833;70;20173;-79
2022/10/12 11:05:11;;;;;;;13.25;2.80;;;;;;;35.23;26.15;93261.84;2049860;70;20216;-76
2022/10/12 11:07:50;;;;;;;11.48;3.28;;;;;;;35.35;23.12;93258.63;2050881;70;20170;-77
2022/10/12 11:10:28;;;;;;;9.50;2.72;;;;;;;36.80;23.99;93254.78;2051046;70;20665;-78
2022/10/12 11:13:05;;;;;;;12.75;3.00;;;;;;;34.89;23.57;93251.66;2050470;70;20146;-76
2022/10/12 11:15:38;;;;;;;12.85;3.33;;;;;;;36.08;23.07;93247.28;2050836;70;20149;-77
2022/10/12 11:18:39;;;;;;;14.63;3.35;;;;;;;37.12;22.39;93244.28;2051511;70;20193;-74
2022/10/12 11:21:17;;;;;;;9.63;2.97;;;;;;;37.10;21.41;93243.63;2050862;70;20161;-79
2022/10/12 11:24:03;;;;;;;11.80;3.13;;;;;;;35.30;23.81;93239.03;2051400;70;20593;-80
2022/10/12 11:26:41;;;;;;;7.88;2.63;;;;;;;35.74;22.74;93237.22;2051251;70;20150;-78
2022/10/12 11:29:11;;;;;;;12.15;2.65;;;;;;;36.50;23.72;93229.28;2051342;69;20261;-79
2022/10/12 11:31:41;;;;;;;9.38;2.90;;;;;;;36.02;23.38;93220.38;2048094;70;20162;-79
2022/10/12 11:34:15;;;;;;;12.77;3.20;;;;;;;38.15;22.04;93230.59;2051028;70;20196;-79
2022/10/12 11:36:45;;;;;;;16.63;3.28;;;;;;;38.42;21.49;93228.94;2051396;69;20150;-79
2022/10/12 11:39:18;;;;;;;12.13;3.05;;;;;;;38.20;21.63;93230.44;2051440;70;20242;-78
2022/10/12 11:41:49;;;;;;;13.18;2.72;;;;;;;38.70;21.90;93230.81;2051384;69;20147;-79